Time;durP1;ratioP1;P1;durP2;ratioP2;P2;SDS_P1;SDS_P2;PMS_P1;PMS_P2;Temp;Humidity;BMP_temperature;BMP_pressure;BME280_temperature;BME280_humidity;BME280_pressure;Samples;Min_cycle;Max_cycle;Signal;HPM_P1;HPM_P2
2023/04/24 00:01:43;;;;;;;19.60;13.83;;;9.90;99.90;;;;;;5095576;28;20179;-68
2023/04/24 00:04:10;;;;;;;21.70;14.40;;;10.00;99.90;;;;;;5095415;28;20627;-68
2023/04/24 00:06:37;;;;;;;21.13;13.53;;;10.00;99.90;;;;;;5094299;28;20160;-68
2023/04/24 00:09:03;;;;;;;22.37;14.17;;;10.00;99.90;;;;;;5095108;28;20237;-70
2023/04/24 00:11:29;;;;;;;21.20;13.60;;;10.00;99.90;;;;;;5095745;28;20184;-69
2023/04/24 00:13:56;;;;;;;25.13;14.47;;;10.10;99.90;;;;;;5095213;28;20176;-68
2023/04/24 00:16:22;;;;;;;19.83;13.23;;;10.10;99.90;;;;;;5095367;28;20211;-69
2023/04/24 00:18:48;;;;;;;23.37;13.90;;;10.00;99.90;;;;;;5095321;28;20168;-69
2023/04/24 00:21:15;;;;;;;19.23;13.70;;;10.00;99.90;;;;;;5095304;28;20237;-68
2023/04/24 00:23:41;;;;;;;21.33;14.57;;;9.90;99.90;;;;;;5094916;28;20172;-68
2023/04/24 00:26:07;;;;;;;23.47;14.10;;;9.90;99.90;;;;;;5095205;28;20654;-68
2023/04/24 00:28:32;;;;;;;26.93;14.80;;;9.90;99.90;;;;;;5094876;28;20172;-67
2023/04/24 00:30:58;;;;;;;20.93;13.93;;;9.90;99.90;;;;;;5095220;28;20176;-69
2023/04/24 00:33:24;;;;;;;20.63;14.73;;;9.90;99.90;;;;;;5094807;28;20187;-68
2023/04/24 00:35:49;;;;;;;23.47;14.20;;;9.90;99.90;;;;;;5095058;28;20218;-69
2023/04/24 00:38:15;;;;;;;26.67;14.67;;;9.80;99.90;;;;;;5094236;28;20173;-68
2023/04/24 00:40:40;;;;;;;21.90;14.87;;;9.80;99.90;;;;;;5095103;28;20183;-68
2023/04/24 00:43:06;;;;;;;19.70;14.80;;;9.70;99.90;;;;;;5094407;28;20707;-69
2023/04/24 00:45:32;;;;;;;24.90;15.40;;;9.80;99.90;;;;;;5094997;28;20225;-68
2023/04/24 00:47:59;;;;;;;22.97;14.10;;;9.70;99.90;;;;;;5094777;28;20224;-68
2023/04/24 00:50:25;;;;;;;26.63;14.87;;;9.70;99.90;;;;;;5094672;28;20180;-68
2023/04/24 00:52:50;;;;;;;23.60;15.13;;;9.80;99.90;;;;;;5094185;28;20606;-69
2023/04/24 00:55:17;;;;;;;25.03;15.40;;;9.90;99.90;;;;;;5094739;28;20246;-69
2023/04/24 00:57:43;;;;;;;21.83;15.27;;;9.80;99.90;;;;;;5094776;28;20171;-69
2023/04/24 01:00:12;;;;;;;18.37;14.20;;;9.80;99.90;;;;;;5094464;28;20175;-68
2023/04/24 01:02:43;;;;;;;22.00;14.60;;;9.80;99.90;;;;;;5094716;28;20353;-68
2023/04/24 01:05:09;;;;;;;24.77;14.70;;;9.80;99.90;;;;;;5094225;28;20186;-69
2023/04/24 01:07:36;;;;;;;25.00;14.93;;;9.80;99.90;;;;;;5094088;28;20176;-69
2023/04/24 01:10:02;;;;;;;24.63;15.33;;;9.90;99.90;;;;;;5094262;28;20263;-68
2023/04/24 01:12:28;;;;;;;22.23;15.20;;;9.80;99.90;;;;;;5094427;28;20206;-69
2023/04/24 01:14:54;;;;;;;26.67;15.97;;;9.80;99.90;;;;;;5094263;28;20581;-69
2023/04/24 01:17:20;;;;;;;22.47;15.83;;;9.80;99.90;;;;;;5093873;28;20183;-70
2023/04/24 01:19:46;;;;;;;25.47;15.73;;;9.80;99.90;;;;;;5093892;28;20504;-69
2023/04/24 01:22:14;;;;;;;21.67;15.37;;;9.70;99.90;;;;;;5093668;28;20182;-69
2023/04/24 01:24:40;;;;;;;19.73;15.10;;;9.60;99.90;;;;;;5094149;28;20178;-68
2023/04/24 01:27:07;;;;;;;22.47;15.90;;;9.60;99.90;;;;;;5094281;28;20203;-69
2023/04/24 01:29:33;;;;;;;19.07;13.93;;;9.50;99.90;;;;;;5093954;28;20180;-68
2023/04/24 01:31:58;;;;;;;19.53;14.90;;;9.50;99.90;;;;;;5093990;28;20214;-69
2023/04/24 01:34:24;;;;;;;20.43;14.97;;;9.50;99.90;;;;;;5093502;28;20176;-68
2023/04/24 01:36:50;;;;;;;21.50;14.10;;;9.50;99.90;;;;;;5093644;28;20171;-69
2023/04/24 01:39:16;;;;;;;20.30;14.40;;;9.50;99.90;;;;;;5093629;28;20172;-68
2023/04/24 01:41:42;;;;;;;22.30;12.93;;;9.50;99.90;;;;;;5093678;28;20582;-68
2023/04/24 01:44:08;;;;;;;16.63;13.03;;;9.50;99.90;;;;;;5093673;28;20187;-68
2023/04/24 01:46:35;;;;;;;20.07;13.17;;;9.40;99.90;;;;;;5093859;28;20164;-68
2023/04/24 01:49:01;;;;;;;18.27;13.23;;;9.50;99.90;;;;;;5093497;28;20164;-68
2023/04/24 01:51:27;;;;;;;18.73;13.10;;;9.50;99.90;;;;;;5093397;28;20168;-68
2023/04/24 01:53:53;;;;;;;14.83;11.60;;;9.40;99.90;;;;;;5093373;28;20179;-68
2023/04/24 01:56:21;;;;;;;18.37;12.73;;;9.50;99.90;;;;;;5093719;28;20211;-67
2023/04/24 01:58:47;;;;;;;17.03;11.90;;;9.40;99.90;;;;;;5093944;28;20210;-67
2023/04/24 02:01:20;;;;;;;19.53;12.27;;;9.50;99.90;;;;;;5093575;28;20168;-68
2023/04/24 02:03:45;;;;;;;20.00;13.27;;;9.50;99.90;;;;;;5093381;28;20237;-67
2023/04/24 02:06:11;;;;;;;17.97;13.10;;;9.50;99.90;;;;;;5093176;28;20179;-68
2023/04/24 02:08:36;;;;;;;20.03;12.40;;;9.40;99.90;;;;;;5093455;28;20217;-68
2023/04/24 02:11:02;;;;;;;19.93;12.70;;;9.40;99.90;;;;;;5093600;28;20175;-67
2023/04/24 02:13:28;;;;;;;15.97;12.80;;;9.40;99.90;;;;;;5092301;28;20200;-68
2023/04/24 02:15:54;;;;;;;19.97;13.47;;;9.40;99.90;;;;;;5093210;28;20218;-67
2023/04/24 02:18:20;;;;;;;19.53;13.67;;;9.40;99.90;;;;;;5093275;28;20542;-68
2023/04/24 02:20:46;;;;;;;19.43;14.20;;;9.40;99.90;;;;;;5092867;28;20175;-68
2023/04/24 02:23:13;;;;;;;21.03;13.33;;;9.40;99.90;;;;;;5091936;28;20329;-67
2023/04/24 02:25:38;;;;;;;20.73;13.47;;;9.50;99.90;;;;;;5093153;28;20262;-68
2023/04/24 02:28:04;;;;;;;17.07;13.30;;;9.50;99.90;;;;;;5093290;28;20247;-68
2023/04/24 02:30:30;;;;;;;17.70;12.50;;;9.50;99.90;;;;;;5096204;28;20179;-67
2023/04/24 02:32:55;;;;;;;18.20;13.03;;;9.50;99.90;;;;;;5097425;28;20206;-67
2023/04/24 02:35:22;;;;;;;19.23;12.83;;;9.50;99.90;;;;;;5096943;28;20306;-68
2023/04/24 02:37:47;;;;;;;20.27;13.57;;;9.50;99.90;;;;;;5097410;28;20203;-68
2023/04/24 02:40:13;;;;;;;17.03;13.77;;;9.50;99.90;;;;;;5097059;28;20172;-68
2023/04/24 02:42:39;;;;;;;19.97;14.33;;;9.50;99.90;;;;;;5096959;28;20694;-69
2023/04/24 02:45:05;;;;;;;18.30;14.47;;;9.50;99.90;;;;;;5097086;28;20183;-68
2023/04/24 02:47:30;;;;;;;19.10;13.60;;;9.40;99.90;;;;;;5097101;28;20253;-69
2023/04/24 02:49:56;;;;;;;21.53;14.27;;;9.40;99.90;;;;;;5096601;28;20211;-67
2023/04/24 02:52:22;;;;;;;17.43;13.30;;;9.40;99.90;;;;;;5096946;28;20569;-67
2023/04/24 02:54:47;;;;;;;18.23;12.80;;;9.40;99.90;;;;;;5096660;28;20222;-68
2023/04/24 02:57:13;;;;;;;17.80;13.40;;;9.40;99.90;;;;;;5097181;28;20176;-68
2023/04/24 02:59:39;;;;;;;17.80;13.63;;;9.40;99.90;;;;;;5096641;28;20247;-68
2023/04/24 03:02:05;;;;;;;17.83;13.67;;;9.40;99.90;;;;;;5097136;28;20164;-67
2023/04/24 03:04:31;;;;;;;25.23;14.07;;;9.40;99.90;;;;;;5096284;28;20639;-68
2023/04/24 03:06:57;;;;;;;19.70;13.50;;;9.40;99.90;;;;;;5096666;28;20623;-68
2023/04/24 03:09:23;;;;;;;20.70;13.60;;;9.40;99.90;;;;;;5096693;28;20262;-68
2023/04/24 03:11:49;;;;;;;21.33;13.97;;;9.30;99.90;;;;;;5096231;28;20172;-68
2023/04/24 03:14:15;;;;;;;17.50;13.13;;;9.30;99.90;;;;;;5096546;28;20175;-67
2023/04/24 03:16:41;;;;;;;18.47;12.47;;;9.40;99.90;;;;;;5095978;28;20734;-68
2023/04/24 03:19:07;;;;;;;15.97;12.53;;;9.40;99.90;;;;;;5096053;28;20289;-67
2023/04/24 03:21:33;;;;;;;16.33;12.30;;;9.40;99.90;;;;;;5096191;28;20312;-68
2023/04/24 03:23:58;;;;;;;13.37;11.80;;;9.30;99.90;;;;;;5096716;28;20176;-67
2023/04/24 03:26:24;;;;;;;14.33;11.23;;;9.30;99.90;;;;;;5096109;28;20168;-68
2023/04/24 03:28:50;;;;;;;18.50;12.33;;;9.20;99.90;;;;;;5096195;28;20191;-68
2023/04/24 03:31:16;;;;;;;15.70;12.23;;;9.20;99.90;;;;;;5095852;28;20176;-68
2023/04/24 03:33:42;;;;;;;15.33;11.37;;;9.10;99.90;;;;;;5095778;28;20218;-67
2023/04/24 03:36:07;;;;;;;13.93;11.70;;;9.10;99.90;;;;;;5095580;28;20239;-69
2023/04/24 03:38:33;;;;;;;13.17;11.20;;;9.10;99.90;;;;;;5096184;28;20250;-68
2023/04/24 03:40:58;;;;;;;12.43;11.13;;;9.10;99.90;;;;;;5095200;28;20171;-68
2023/04/24 03:43:24;;;;;;;16.53;11.63;;;9.10;99.90;;;;;;5095646;28;20557;-68
2023/04/24 03:45:50;;;;;;;20.13;11.50;;;9.10;99.90;;;;;;5095317;28;20200;-68
2023/04/24 03:48:16;;;;;;;14.37;10.07;;;9.10;99.90;;;;;;5095575;28;20186;-68
2023/04/24 03:50:41;;;;;;;11.47;10.13;;;9.00;99.90;;;;;;5095377;28;20686;-70
2023/04/24 03:53:08;;;;;;;13.17;9.83;;;9.10;99.90;;;;;;5095614;28;20171;-68
2023/04/24 03:55:33;;;;;;;12.07;10.03;;;9.10;99.90;;;;;;5094992;28;20206;-69
2023/04/24 03:57:59;;;;;;;12.87;9.77;;;9.10;99.90;;;;;;5095464;28;20172;-68
2023/04/24 04:00:25;;;;;;;11.23;9.40;;;9.10;99.90;;;;;;5095227;28;20643;-69
2023/04/24 04:02:51;;;;;;;10.47;9.33;;;9.10;99.90;;;;;;5095309;28;20195;-68
2023/04/24 04:05:17;;;;;;;13.13;8.70;;;9.20;99.90;;;;;;5095100;28;20635;-68
2023/04/24 04:07:42;;;;;;;10.43;8.07;;;9.20;99.90;;;;;;5095664;28;20164;-68
2023/04/24 04:10:08;;;;;;;9.10;7.77;;;9.20;99.90;;;;;;5095008;28;20180;-68
2023/04/24 04:12:34;;;;;;;8.80;7.90;;;9.30;99.90;;;;;;5094895;28;20175;-68
2023/04/24 04:15:00;;;;;;;10.23;8.20;;;9.20;99.90;;;;;;5094617;28;20257;-68
2023/04/24 04:17:25;;;;;;;9.53;8.03;;;9.30;99.90;;;;;;5094766;28;20164;-68
2023/04/24 04:19:51;;;;;;;9.27;8.27;;;9.30;99.90;;;;;;5095334;28;20642;-68
2023/04/24 04:22:17;;;;;;;8.90;7.93;;;9.30;99.90;;;;;;5094730;28;20172;-67
2023/04/24 04:24:42;;;;;;;8.80;7.90;;;9.30;99.90;;;;;;5095365;28;20233;-67
2023/04/24 04:27:08;;;;;;;8.97;7.27;;;9.30;99.90;;;;;;5094440;28;20191;-69
2023/04/24 04:29:34;;;;;;;8.43;7.53;;;9.30;99.90;;;;;;5094658;28;20191;-69
2023/04/24 04:32:01;;;;;;;10.57;7.57;;;9.30;99.90;;;;;;5093902;28;20184;-68
2023/04/24 04:34:27;;;;;;;8.50;7.60;;;9.30;99.90;;;;;;5094680;28;20228;-68
2023/04/24 04:36:52;;;;;;;8.27;7.43;;;9.30;99.90;;;;;;5094713;28;20260;-69
2023/04/24 04:39:18;;;;;;;7.93;6.83;;;9.30;99.90;;;;;;5094937;28;20167;-68
2023/04/24 04:41:46;;;;;;;8.93;7.40;;;9.30;99.90;;;;;;5093610;28;20219;-68
2023/04/24 04:44:12;;;;;;;9.80;7.73;;;9.40;99.90;;;;;;5094409;28;20171;-68
2023/04/24 04:46:38;;;;;;;10.30;7.67;;;9.30;99.90;;;;;;5093819;28;20168;-69
2023/04/24 04:49:04;;;;;;;9.43;7.53;;;9.20;99.90;;;;;;5094569;28;20681;-69
2023/04/24 04:51:30;;;;;;;9.20;8.30;;;9.20;99.90;;;;;;5093493;28;20168;-68
2023/04/24 04:53:56;;;;;;;9.50;8.57;;;9.20;99.90;;;;;;5093929;28;20165;-69
2023/04/24 04:56:22;;;;;;;14.57;9.40;;;9.20;99.90;;;;;;5093805;28;20218;-68
2023/04/24 04:58:47;;;;;;;13.80;10.10;;;9.20;99.90;;;;;;5093940;28;20167;-68
2023/04/24 05:01:13;;;;;;;12.20;10.20;;;9.20;99.90;;;;;;5092200;28;20180;-68
2023/04/24 05:03:39;;;;;;;14.77;11.07;;;9.20;99.90;;;;;;5094314;28;20160;-68
2023/04/24 05:06:05;;;;;;;19.50;11.60;;;9.20;99.90;;;;;;5092699;28;20171;-69
2023/04/24 05:08:31;;;;;;;17.57;12.13;;;9.20;99.90;;;;;;5093619;28;20194;-69
2023/04/24 05:10:56;;;;;;;17.77;11.73;;;9.20;99.90;;;;;;5092999;28;20171;-69
2023/04/24 05:13:22;;;;;;;15.23;11.50;;;9.10;99.90;;;;;;5093634;28;20623;-69
2023/04/24 05:15:48;;;;;;;19.13;12.73;;;9.10;99.90;;;;;;5093005;28;20746;-68
2023/04/24 05:18:13;;;;;;;19.50;13.10;;;9.10;99.90;;;;;;5093477;28;20293;-68
2023/04/24 05:20:39;;;;;;;19.03;12.80;;;9.10;99.90;;;;;;5093432;28;20175;-69
2023/04/24 05:23:05;;;;;;;17.33;13.00;;;9.10;99.90;;;;;;5093095;28;20658;-67
2023/04/24 05:25:35;;;;;;;21.90;12.97;;;9.10;99.90;;;;;;5093292;28;20172;-68
2023/04/24 05:28:01;;;;;;;21.03;13.47;;;9.10;99.90;;;;;;5092924;28;20187;-68
2023/04/24 05:30:26;;;;;;;20.90;13.53;;;9.20;99.90;;;;;;5093279;28;20172;-69
2023/04/24 05:32:52;;;;;;;21.30;12.87;;;9.20;99.90;;;;;;5092853;28;20233;-68
2023/04/24 05:35:18;;;;;;;14.77;12.27;;;9.20;99.90;;;;;;5092599;28;20256;-69
2023/04/24 05:37:44;;;;;;;22.43;12.83;;;9.10;99.90;;;;;;5092510;28;20164;-68
2023/04/24 05:40:10;;;;;;;18.13;12.70;;;9.10;99.90;;;;;;5092565;28;20164;-68
2023/04/24 05:42:36;;;;;;;15.60;12.00;;;9.10;99.90;;;;;;5092158;28;20576;-68
2023/04/24 05:45:02;;;;;;;17.67;12.63;;;9.10;99.90;;;;;;5092758;28;20175;-68
2023/04/24 05:47:28;;;;;;;18.37;12.27;;;9.10;99.90;;;;;;5092156;28;20176;-68
2023/04/24 05:49:54;;;;;;;18.23;12.30;;;9.00;99.90;;;;;;5092117;28;20578;-68
2023/04/24 05:52:20;;;;;;;22.70;13.37;;;9.10;99.90;;;;;;5092848;28;20195;-68
2023/04/24 05:54:45;;;;;;;20.97;13.33;;;9.10;99.90;;;;;;5092728;28;20270;-69
2023/04/24 05:57:11;;;;;;;18.53;13.77;;;9.00;99.90;;;;;;5091536;28;20677;-69
2023/04/24 05:59:40;;;;;;;21.73;13.20;;;9.00;99.90;;;;;;5092925;28;20663;-68
2023/04/24 06:02:07;;;;;;;18.03;13.77;;;8.90;99.90;;;;;;5091605;28;20662;-69
2023/04/24 06:04:33;;;;;;;19.03;13.53;;;8.90;99.90;;;;;;5091845;28;20627;-68
2023/04/24 06:06:59;;;;;;;22.80;13.37;;;8.90;99.90;;;;;;5091841;28;20170;-66
2023/04/24 06:09:25;;;;;;;17.37;13.33;;;8.90;99.90;;;;;;5090867;28;20168;-69
2023/04/24 06:11:53;;;;;;;22.43;13.30;;;9.00;99.90;;;;;;5091712;28;20176;-69
2023/04/24 06:14:19;;;;;;;22.43;14.20;;;9.00;99.90;;;;;;5092134;28;20246;-68
2023/04/24 06:16:45;;;;;;;21.90;13.53;;;8.90;99.90;;;;;;5092323;28;20229;-68
2023/04/24 06:19:11;;;;;;;23.80;13.93;;;8.90;99.90;;;;;;5092453;28;20179;-69
2023/04/24 06:21:36;;;;;;;23.83;14.10;;;8.90;99.90;;;;;;5091137;28;20255;-68
2023/04/24 06:24:03;;;;;;;22.33;14.83;;;8.90;99.90;;;;;;5091550;28;20183;-69
2023/04/24 06:26:29;;;;;;;24.27;13.83;;;8.90;99.90;;;;;;5091437;28;20164;-68
2023/04/24 06:28:54;;;;;;;23.80;14.77;;;8.90;99.90;;;;;;5090345;28;20530;-69
2023/04/24 06:31:20;;;;;;;22.17;15.00;;;9.00;99.90;;;;;;5091555;28;20622;-68
2023/04/24 06:33:46;;;;;;;25.37;14.77;;;8.90;99.90;;;;;;5091717;28;20180;-69
2023/04/24 06:36:12;;;;;;;19.50;14.17;;;9.00;99.90;;;;;;5091786;28;20212;-69
2023/04/24 06:38:38;;;;;;;29.57;15.57;;;8.90;99.90;;;;;;5092028;28;20195;-68
2023/04/24 06:41:05;;;;;;;25.20;15.50;;;9.00;99.90;;;;;;5091034;28;20655;-69
2023/04/24 06:43:31;;;;;;;25.43;15.50;;;9.00;99.90;;;;;;5091556;28;20211;-69
2023/04/24 06:45:58;;;;;;;27.00;16.30;;;9.10;99.90;;;;;;5092135;28;20175;-68
2023/04/24 06:48:25;;;;;;;30.37;16.17;;;9.20;99.90;;;;;;5091531;28;20164;-70
2023/04/24 06:50:50;;;;;;;25.90;15.77;;;9.20;99.90;;;;;;5091525;28;20616;-69
2023/04/24 06:53:16;;;;;;;33.83;17.00;;;9.30;99.90;;;;;;5091418;28;20175;-69
2023/04/24 06:55:43;;;;;;;29.07;15.13;;;9.30;99.90;;;;;;5091593;28;20256;-69
2023/04/24 06:58:09;;;;;;;29.73;16.43;;;9.30;99.90;;;;;;5091706;28;20171;-69
2023/04/24 07:00:34;;;;;;;24.47;14.63;;;9.40;99.90;;;;;;5091481;28;20179;-68
2023/04/24 07:03:00;;;;;;;28.07;16.47;;;9.40;99.90;;;;;;5092254;28;20164;-69
2023/04/24 07:05:26;;;;;;;27.10;16.27;;;9.40;99.90;;;;;;5091758;28;20179;-69
2023/04/24 07:07:51;;;;;;;22.93;17.00;;;9.40;99.90;;;;;;5091684;28;20167;-69
2023/04/24 07:10:18;;;;;;;29.43;17.00;;;9.50;99.90;;;;;;5091516;28;20164;-69
2023/04/24 07:12:43;;;;;;;26.50;16.97;;;9.40;99.90;;;;;;5091812;28;20165;-68
2023/04/24 07:15:10;;;;;;;29.60;16.17;;;9.50;99.90;;;;;;5092522;28;20215;-69
2023/04/24 07:17:38;;;;;;;26.80;15.93;;;9.60;99.90;;;;;;5095602;28;20312;-67
2023/04/24 07:20:04;;;;;;;23.23;15.43;;;9.60;99.90;;;;;;5095101;28;20175;-69
2023/04/24 07:22:30;;;;;;;21.90;14.23;;;9.70;99.90;;;;;;5095713;28;20195;-69
2023/04/24 07:24:55;;;;;;;21.67;12.80;;;10.10;99.90;;;;;;5095327;28;20635;-68
2023/04/24 07:27:21;;;;;;;25.17;13.63;;;10.40;99.90;;;;;;5095565;28;20263;-69
2023/04/24 07:29:47;;;;;;;20.47;12.77;;;10.30;99.90;;;;;;5095493;28;20519;-69
2023/04/24 07:32:12;;;;;;;19.80;12.17;;;10.20;99.90;;;;;;5094871;28;20196;-70
2023/04/24 07:34:38;;;;;;;23.90;11.67;;;10.40;99.90;;;;;;5093891;28;20182;-70
2023/04/24 07:37:04;;;;;;;17.60;11.07;;;10.40;99.90;;;;;;5095195;28;20183;-69
2023/04/24 07:39:29;;;;;;;11.80;10.40;;;10.50;99.90;;;;;;5094835;28;20203;-69
2023/04/24 07:41:55;;;;;;;14.90;9.93;;;11.00;99.90;;;;;;5095229;28;20226;-70
2023/04/24 07:44:20;;;;;;;13.70;9.20;;;11.50;99.90;;;;;;5095305;28;20498;-69
2023/04/24 07:46:47;;;;;;;12.13;8.47;;;11.80;99.90;;;;;;5095147;28;20172;-70
2023/04/24 07:49:12;;;;;;;11.53;8.20;;;11.70;93.00;;;;;;5094848;28;20176;-70
2023/04/24 07:51:39;;;;;;;14.50;9.40;;;11.50;93.50;;;;;;5094965;28;20180;-71
2023/04/24 07:54:07;;;;;;;12.90;9.40;;;11.20;99.90;;;;;;5094905;28;20247;-71
2023/04/24 07:56:33;;;;;;;16.33;10.47;;;11.00;99.90;;;;;;5095186;28;20208;-69
2023/04/24 07:59:00;;;;;;;19.50;11.40;;;10.70;99.90;;;;;;5095131;28;20186;-70
2023/04/24 08:01:26;;;;;;;20.60;11.67;;;10.70;99.90;;;;;;5095302;28;20210;-70
2023/04/24 08:03:52;;;;;;;17.00;10.57;;;10.90;99.90;;;;;;5094666;28;20168;-71
2023/04/24 08:06:18;;;;;;;21.03;11.13;;;11.40;99.90;;;;;;5094724;28;20180;-69
2023/04/24 08:08:43;;;;;;;16.33;9.80;;;11.50;99.90;;;;;;5094736;28;20179;-70
2023/04/24 08:11:09;;;;;;;17.77;10.27;;;11.30;95.10;;;;;;5093437;28;20604;-68
2023/04/24 08:13:35;;;;;;;23.93;11.07;;;11.20;99.90;;;;;;5089834;28;20168;-69
2023/04/24 08:16:00;;;;;;;13.47;9.43;;;11.10;99.90;;;;;;5093136;28;20199;-68
2023/04/24 08:18:26;;;;;;;14.93;9.63;;;11.10;99.90;;;;;;5094150;28;20628;-68
2023/04/24 08:20:52;;;;;;;14.73;8.97;;;11.10;99.90;;;;;;5094103;28;20657;-68
2023/04/24 08:23:17;;;;;;;15.73;9.23;;;11.20;99.90;;;;;;5093126;28;20207;-70
2023/04/24 08:25:43;;;;;;;17.33;8.07;;;11.50;99.90;;;;;;5092825;28;20164;-67
2023/04/24 08:28:10;;;;;;;12.00;7.80;;;12.30;92.70;;;;;;5092864;28;20270;-69
2023/04/24 08:30:36;;;;;;;13.00;7.93;;;12.70;62.00;;;;;;5094658;28;20175;-69
2023/04/24 08:33:02;;;;;;;23.20;8.30;;;12.90;45.70;;;;;;5093845;28;20199;-69
2023/04/24 08:35:28;;;;;;;15.03;7.27;;;12.50;48.50;;;;;;5093715;28;20204;-69
2023/04/24 08:37:53;;;;;;;11.87;7.20;;;12.30;47.20;;;;;;5093466;28;20183;-68
2023/04/24 08:40:27;;;;;;;14.63;7.07;;;12.20;45.90;;;;;;5093804;28;20182;-69
2023/04/24 08:42:56;;;;;;;17.23;7.00;;;12.10;35.20;;;;;;5093876;28;20268;-68
2023/04/24 08:45:22;;;;;;;13.03;7.10;;;12.00;50.90;;;;;;5094299;28;20171;-68
2023/04/24 08:47:49;;;;;;;11.63;6.40;;;12.60;41.70;;;;;;5093002;28;20290;-68
2023/04/24 08:50:15;;;;;;;10.60;5.83;;;13.40;16.10;;;;;;5093775;28;20631;-68
2023/04/24 08:52:42;;;;;;;9.23;5.63;;;14.00;1.00;;;;;;5093488;28;20171;-70
2023/04/24 08:55:08;;;;;;;10.40;6.10;;;15.00;1.00;;;;;;5093825;28;20200;-69
2023/04/24 08:57:35;;;;;;;12.93;5.47;;;16.40;1.00;;;;;;5093613;28;20180;-70
2023/04/24 09:00:01;;;;;;;10.10;5.38;;;17.10;1.00;;;;;;5092116;28;20175;-69
2023/04/24 09:02:28;;;;;;;8.15;5.20;;;17.50;1.00;;;;;;5092974;28;20172;-70
2023/04/24 09:04:56;;;;;;;9.87;5.23;;;17.40;1.00;;;;;;5093355;28;20168;-70
2023/04/24 09:07:25;;;;;;;6.25;4.72;;;17.10;1.00;;;;;;5093425;28;20174;-69
2023/04/24 09:09:51;;;;;;;14.45;5.13;;;17.50;1.00;;;;;;5091973;28;20551;-69
2023/04/24 09:12:17;;;;;;;5.55;4.43;;;17.90;99.90;;;;;;5092791;28;20172;-69
2023/04/24 09:14:45;;;;;;;4.85;4.03;;;18.40;99.90;;;;;;5093107;28;20194;-69
2023/04/24 09:17:11;;;;;;;6.65;4.53;;;17.90;1.00;;;;;;5092940;28;20643;-70
2023/04/24 09:19:37;;;;;;;10.85;4.70;;;17.20;99.90;;;;;;5093479;28;20192;-69
2023/04/24 09:22:06;;;;;;;6.22;4.53;;;16.60;99.90;;;;;;5092300;28;20176;-70
2023/04/24 09:24:33;;;;;;;9.23;4.20;;;17.20;1.00;;;;;;5091391;28;20520;-69
2023/04/24 09:26:59;;;;;;;5.63;4.20;;;17.80;99.90;;;;;;5093020;28;20207;-69
2023/04/24 09:29:25;;;;;;;7.00;4.30;;;16.90;42.10;;;;;;5092989;28;20218;-70
2023/04/24 09:31:51;;;;;;;12.02;4.90;;;15.80;1.00;;;;;;5093127;28;20188;-70
2023/04/24 09:34:23;;;;;;;4.60;3.77;;;15.10;1.00;;;;;;5092457;28;20225;-70
2023/04/24 09:36:48;;;;;;;8.40;4.70;;;13.90;1.00;;;;;;5092593;28;20211;-69
2023/04/24 09:39:16;;;;;;;8.90;4.67;;;13.60;1.00;;;;;;5091894;28;20182;-70
2023/04/24 09:42:02;;;;;;;7.53;4.93;;;13.60;1.00;;;;;;5092554;28;20223;-70
2023/04/24 09:44:28;;;;;;;8.20;4.17;;;13.40;1.00;;;;;;5092911;28;20168;-69
2023/04/24 09:46:56;;;;;;;5.67;4.23;;;14.20;1.00;;;;;;5093021;28;20555;-69
2023/04/24 09:49:29;;;;;;;7.90;4.13;;;15.00;1.00;;;;;;5092173;28;20214;-69
2023/04/24 09:52:09;;;;;;;7.07;4.03;;;15.70;1.00;;;;;;5092899;28;20159;-69
2023/04/24 09:54:36;;;;;;;7.73;3.90;;;16.10;1.00;;;;;;5091495;28;20282;-68
2023/04/24 09:57:02;;;;;;;6.77;4.10;;;15.80;1.00;;;;;;5092134;28;20687;-69
2023/04/24 09:59:28;;;;;;;6.10;4.17;;;15.60;99.90;;;;;;5092424;28;20268;-68
2023/04/24 10:01:53;;;;;;;7.23;4.00;;;15.70;1.00;;;;;;5091940;28;20588;-69
2023/04/24 10:04:24;;;;;;;6.67;3.90;;;16.10;1.00;;;;;;5091749;28;20211;-68
2023/04/24 10:06:51;;;;;;;5.53;4.10;;;16.20;51.50;;;;;;5092304;28;20498;-69
2023/04/24 10:09:22;;;;;;;7.10;4.20;;;16.00;99.90;;;;;;5092028;28;20199;-68
2023/04/24 10:11:51;;;;;;;7.43;4.20;;;15.90;99.90;;;;;;5092257;28;20255;-70
2023/04/24 10:14:24;;;;;;;6.83;4.00;;;16.20;1.00;;;;;;5091977;28;20203;-69
2023/04/24 10:16:53;;;;;;;5.97;4.00;;;16.00;1.00;;;;;;5091873;28;20207;-68
2023/04/24 10:19:19;;;;;;;7.87;4.50;;;15.60;1.00;;;;;;5091476;28;20218;-69
2023/04/24 10:21:48;;;;;;;5.93;3.80;;;15.30;99.90;;;;;;5092501;28;20207;-68
2023/04/24 10:24:20;;;;;;;6.27;4.30;;;14.70;1.00;;;;;;5092040;28;20744;-69
2023/04/24 10:26:48;;;;;;;6.97;4.23;;;14.10;1.00;;;;;;5091707;28;20179;-70
2023/04/24 10:29:16;;;;;;;8.03;4.57;;;13.50;1.00;;;;;;5090965;28;20180;-68
2023/04/24 10:31:45;;;;;;;6.23;4.67;;;13.50;1.00;;;;;;5091967;28;20188;-68
2023/04/24 10:34:11;;;;;;;8.03;4.67;;;13.80;1.00;;;;;;5091693;28;20176;-69
2023/04/24 10:36:41;;;;;;;5.67;4.20;;;14.20;1.00;;;;;;5091656;28;20215;-68
2023/04/24 10:39:11;;;;;;;8.67;4.27;;;15.10;1.00;;;;;;5092254;28;20180;-69
2023/04/24 10:41:38;;;;;;;6.13;4.60;;;15.30;99.90;;;;;;5092492;28;20254;-69
2023/04/24 10:44:14;;;;;;;5.63;4.30;;;15.40;1.00;;;;;;5090926;28;20174;-69
2023/04/24 10:46:52;;;;;;;8.77;5.13;;;15.50;1.00;;;;;;5091920;28;20221;-69
2023/04/24 10:49:28;;;;;;;7.50;4.50;;;15.40;1.00;;;;;;5090835;28;20168;-69
2023/04/24 10:51:59;;;;;;;6.37;4.63;;;15.80;1.00;;;;;;5096270;28;20246;-69
2023/04/24 10:54:33;;;;;;;7.53;4.90;;;15.50;1.00;;;;;;5096477;28;20647;-70
2023/04/24 10:57:18;;;;;;;7.43;4.83;;;15.50;1.00;;;;;;5095416;28;20302;-69
2023/04/24 10:59:44;;;;;;;6.93;4.80;;;14.70;1.00;;;;;;5094529;28;20247;-70
2023/04/24 11:02:10;;;;;;;6.53;4.70;;;14.10;1.00;;;;;;5095398;28;20176;-69
2023/04/24 11:04:36;;;;;;;5.83;4.77;;;14.20;1.00;;;;;;5096267;28;20631;-69
2023/04/24 11:07:05;;;;;;;8.47;5.10;;;14.50;1.00;;;;;;5096064;28;20171;-70
2023/04/24 11:09:32;;;;;;;7.53;5.23;;;14.40;1.00;;;;;;5095375;28;20164;-69
2023/04/24 11:12:07;;;;;;;8.87;5.00;;;14.40;1.00;;;;;;5095795;28;20243;-68
2023/04/24 11:14:58;;;;;;;10.33;5.97;;;14.30;1.00;;;;;;5095927;28;20229;-69
2023/04/24 11:17:39;;;;;;;7.37;5.30;;;14.20;1.00;;;;;;5095428;28;20198;-69
2023/04/24 11:20:16;;;;;;;8.20;4.90;;;14.50;1.00;;;;;;5095412;28;20179;-70
2023/04/24 11:22:41;;;;;;;7.37;4.97;;;14.70;1.00;;;;;;5095174;28;20197;-67
2023/04/24 11:25:08;;;;;;;5.50;5.00;;;14.70;1.00;;;;;;5095208;28;20203;-68
2023/04/24 11:27:42;;;;;;;6.50;4.33;;;15.10;1.00;;;;;;5095278;28;20175;-68
2023/04/24 11:30:08;;;;;;;5.70;4.80;;;15.10;99.90;;;;;;5078577;28;20171;-68
2023/04/24 11:32:37;;;;;;;4.87;4.37;;;15.10;99.90;;;;;;5094843;28;20233;-67
2023/04/24 11:35:05;;;;;;;5.30;4.43;;;14.70;1.00;;;;;;5094852;28;20199;-68
2023/04/24 11:37:39;;;;;;;8.43;5.17;;;14.90;99.90;;;;;;5093862;28;20179;-68
2023/04/24 11:40:13;;;;;;;7.73;4.83;;;14.70;1.00;;;;;;5078364;28;20190;-67
2023/04/24 11:42:40;;;;;;;5.40;4.90;;;14.90;1.00;;;;;;5095079;28;20214;-68
2023/04/24 11:45:08;;;;;;;5.07;4.57;;;15.60;1.00;;;;;;5094501;28;20180;-68
2023/04/24 11:47:33;;;;;;;8.13;5.10;;;15.70;99.90;;;;;;5094905;28;20529;-68
2023/04/24 11:50:00;;;;;;;5.55;5.05;;;15.90;99.90;;;;;;5093525;28;20233;-67
2023/04/24 11:52:27;;;;;;;7.25;5.53;;;15.90;99.90;;;;;;5094485;28;20218;-67
2023/04/24 11:54:52;;;;;;;5.55;4.88;;;16.10;99.90;;;;;;5094767;28;20241;-69
2023/04/24 11:57:23;;;;;;;5.67;5.17;;;16.40;75.70;;;;;;5095310;28;20639;-68
2023/04/24 11:59:49;;;;;;;5.78;5.03;;;16.60;1.00;;;;;;5093780;28;20179;-69
2023/04/24 12:02:25;;;;;;;6.47;4.97;;;16.30;1.00;;;;;;5092666;28;20176;-69
2023/04/24 12:04:55;;;;;;;6.97;5.20;;;15.70;99.90;;;;;;5094696;28;20175;-69
2023/04/24 12:07:22;;;;;;;6.22;5.63;;;16.10;99.90;;;;;;5093554;28;20179;-68
2023/04/24 12:09:57;;;;;;;6.40;5.30;;;16.40;99.90;;;;;;5092584;28;20186;-68
2023/04/24 12:12:28;;;;;;;6.90;5.90;;;15.80;1.00;;;;;;5094151;28;20672;-68
2023/04/24 12:14:56;;;;;;;5.03;4.63;;;15.40;1.00;;;;;;5094342;28;20175;-67
2023/04/24 12:17:30;;;;;;;5.13;4.63;;;15.50;49.40;;;;;;5093895;28;20197;-68
2023/04/24 12:20:14;;;;;;;12.90;9.40;;;15.50;99.90;;;;;;5093244;28;20174;-68
2023/04/24 12:22:47;;;;;;;33.37;20.97;;;15.70;99.90;;;;;;5093703;28;20673;-68
2023/04/24 12:25:18;;;;;;;9.93;6.63;;;15.70;1.00;;;;;;5092519;28;20223;-68
2023/04/24 12:27:45;;;;;;;5.23;4.67;;;15.80;99.90;;;;;;5093270;28;20168;-68
2023/04/24 12:30:14;;;;;;;7.03;5.33;;;16.00;1.00;;;;;;5092313;28;20175;-68
2023/04/24 12:32:45;;;;;;;11.57;8.17;;;15.80;99.90;;;;;;5093441;28;20231;-68
2023/04/24 12:35:10;;;;;;;4.30;3.97;;;15.70;99.90;;;;;;5094225;28;20195;-68
2023/04/24 12:37:36;;;;;;;4.60;4.20;;;15.80;1.00;;;;;;5093832;28;20218;-68
2023/04/24 12:40:07;;;;;;;6.13;5.00;;;15.80;29.90;;;;;;5093144;28;20271;-68
2023/04/24 12:42:34;;;;;;;6.57;4.60;;;15.70;1.00;;;;;;5092070;28;20583;-68